Terminal Aerodrome Forecast
Issued by NWS

Home | Current Version | Previous Version | Text Only | Print | Product List | Glossary On
Versions: 1 2 3 4 5 6 7 8 9 10 11 12 13
000
FTUS45 KRIW 031600 AAA
TAFBPI
TAF AMD
KBPI 031601Z 0316/0412 VRB05KT P6SM VCSH SCT013 OVC035
      TEMPO 0316/0319 3SM -SN OVC013
     FM032100 34013KT P6SM SCT025 BKN040
     FM040200 35009KT P6SM SCT040=

USA.gov is the U.S. government's official web portal to all federal, state and local government web resources and services.